KAGO/AGO METAR and TAF weather

Enter ICAO airport designator
Station Type Date Time Source
KAGO METAR 2024/06/15 23:35 UTC NOAA

KAGO 152335Z AUTO 00000KT 10SM CLR 33/22 A2987 RMK A01


Station Type Date Time Source
KAGO Decoded METAR 2024/06/15 23:35 UTC NOAA

Station name not available
Jun 15, 2024 - 07:35 PM EDT / 2024.06.15 2335 UTC
Wind: Calm:0
Visibility: 10 mile(s):0
Sky conditions: clear
Temperature: 91 F (33 C)
Heat index: 97.5 F (36.4 C):1
Dew Point: 71 F (22 C)
Relative Humidity: 52%
Pressure (altimeter): 29.87 in. Hg (1011 hPa)
ob: KAGO 152335Z AUTO 00000KT 10SM CLR 33/22 A2987 RMK A01
cycle: 23

Station Type Date Time Source
KAGO TAF UTC NOAA

Error!

Example: see airport list